sensor_id;sensor_type;location;lat;lon;timestamp;pressure;altitude;pressure_sealevel;temperature;humidity
75549;BME280;64133;56.002;37.208;2023-05-27T00:02:04;98801.46;;;16.28;71.35
75549;BME280;64133;56.002;37.208;2023-05-27T00:07:09;98809.16;;;16.19;71.61
75549;BME280;64133;56.002;37.208;2023-05-27T00:12:14;98825.30;;;16.17;71.98
75549;BME280;64133;56.002;37.208;2023-05-27T00:17:18;98824.67;;;16.11;72.16
75549;BME280;64133;56.002;37.208;2023-05-27T00:22:23;98799.75;;;16.12;72.42
75549;BME280;64133;56.002;37.208;2023-05-27T00:27:27;98782.75;;;16.21;72.98
75549;BME280;64133;56.002;37.208;2023-05-27T00:32:32;98778.81;;;16.13;73.28
75549;BME280;64133;56.002;37.208;2023-05-27T00:37:37;98792.64;;;16.04;73.04
75549;BME280;64133;56.002;37.208;2023-05-27T00:42:41;98791.24;;;15.90;73.22
75549;BME280;64133;56.002;37.208;2023-05-27T00:47:46;98800.56;;;15.86;73.21
75549;BME280;64133;56.002;37.208;2023-05-27T00:52:50;98799.08;;;15.79;73.16
75549;BME280;64133;56.002;37.208;2023-05-27T00:57:55;98800.95;;;15.66;73.08
75549;BME280;64133;56.002;37.208;2023-05-27T01:03:00;98801.66;;;15.48;72.94
75549;BME280;64133;56.002;37.208;2023-05-27T01:08:12;98805.14;;;15.48;72.73
75549;BME280;64133;56.002;37.208;2023-05-27T01:13:18;98802.34;;;15.46;72.15
75549;BME280;64133;56.002;37.208;2023-05-27T01:18:22;98798.38;;;15.38;71.76
75549;BME280;64133;56.002;37.208;2023-05-27T01:28:41;98797.06;;;15.33;71.03
75549;BME280;64133;56.002;37.208;2023-05-27T01:33:48;98808.71;;;15.16;70.95
75549;BME280;64133;56.002;37.208;2023-05-27T01:38:51;98810.88;;;15.08;71.20
75549;BME280;64133;56.002;37.208;2023-05-27T01:43:58;98813.03;;;14.93;70.80
75549;BME280;64133;56.002;37.208;2023-05-27T01:49:03;98806.44;;;14.85;69.62
75549;BME280;64133;56.002;37.208;2023-05-27T01:54:08;98815.86;;;14.83;69.23
75549;BME280;64133;56.002;37.208;2023-05-27T01:59:12;98813.39;;;14.86;69.27
75549;BME280;64133;56.002;37.208;2023-05-27T02:04:17;98821.17;;;14.87;68.23
75549;BME280;64133;56.002;37.208;2023-05-27T02:09:22;98826.66;;;14.94;67.44
75549;BME280;64133;56.002;37.208;2023-05-27T02:14:26;98827.47;;;15.02;66.68
75549;BME280;64133;56.002;37.208;2023-05-27T02:19:31;98830.27;;;15.05;66.35
75549;BME280;64133;56.002;37.208;2023-05-27T02:24:36;98831.59;;;15.17;65.75
75549;BME280;64133;56.002;37.208;2023-05-27T02:29:40;98836.37;;;15.38;64.75
75549;BME280;64133;56.002;37.208;2023-05-27T02:34:45;98837.17;;;15.47;63.67
75549;BME280;64133;56.002;37.208;2023-05-27T02:39:52;98850.42;;;15.59;63.14
75549;BME280;64133;56.002;37.208;2023-05-27T02:44:54;98855.56;;;15.69;62.09
75549;BME280;64133;56.002;37.208;2023-05-27T02:49:59;98863.81;;;15.82;61.44
75549;BME280;64133;56.002;37.208;2023-05-27T02:55:04;98856.09;;;16.03;60.43
75549;BME280;64133;56.002;37.208;2023-05-27T03:00:11;98860.31;;;16.25;59.29
75549;BME280;64133;56.002;37.208;2023-05-27T03:05:15;98869.94;;;16.26;58.44
75549;BME280;64133;56.002;37.208;2023-05-27T03:10:20;98866.84;;;16.41;57.90
75549;BME280;64133;56.002;37.208;2023-05-27T03:15:25;98871.11;;;16.54;56.84
75549;BME280;64133;56.002;37.208;2023-05-27T03:20:29;98877.27;;;16.82;56.23
75549;BME280;64133;56.002;37.208;2023-05-27T03:25:34;98879.02;;;17.13;55.03
75549;BME280;64133;56.002;37.208;2023-05-27T03:30:39;98880.37;;;17.27;54.08
75549;BME280;64133;56.002;37.208;2023-05-27T03:35:43;98875.59;;;17.90;53.06
75549;BME280;64133;56.002;37.208;2023-05-27T03:40:48;98870.88;;;20.02;49.38
75549;BME280;64133;56.002;37.208;2023-05-27T03:45:53;98874.13;;;27.91;37.28
75549;BME280;64133;56.002;37.208;2023-05-27T03:50:57;98890.58;;;31.65;30.85
75549;BME280;64133;56.002;37.208;2023-05-27T03:56:02;98891.62;;;33.04;27.95
75549;BME280;64133;56.002;37.208;2023-05-27T04:01:07;98895.42;;;34.00;26.20
75549;BME280;64133;56.002;37.208;2023-05-27T04:06:12;98908.34;;;34.81;24.53
75549;BME280;64133;56.002;37.208;2023-05-27T04:11:16;98907.94;;;35.09;23.36
75549;BME280;64133;56.002;37.208;2023-05-27T04:16:21;98913.81;;;35.54;22.10
75549;BME280;64133;56.002;37.208;2023-05-27T04:21:26;98926.63;;;35.04;21.68
75549;BME280;64133;56.002;37.208;2023-05-27T04:26:30;98932.66;;;36.43;20.09
75549;BME280;64133;56.002;37.208;2023-05-27T04:31:35;98932.90;;;36.05;19.45
75549;BME280;64133;56.002;37.208;2023-05-27T04:36:40;98927.64;;;37.45;18.18
75549;BME280;64133;56.002;37.208;2023-05-27T04:41:45;98927.27;;;38.40;16.79
75549;BME280;64133;56.002;37.208;2023-05-27T04:46:50;98932.86;;;39.44;15.43
75549;BME280;64133;56.002;37.208;2023-05-27T04:51:54;98938.08;;;39.37;14.87
75549;BME280;64133;56.002;37.208;2023-05-27T04:56:59;98943.88;;;39.93;14.05
75549;BME280;64133;56.002;37.208;2023-05-27T05:02:04;98933.92;;;40.01;13.50
75549;BME280;64133;56.002;37.208;2023-05-27T05:07:14;98939.76;;;40.32;13.06
75549;BME280;64133;56.002;37.208;2023-05-27T05:12:19;98940.29;;;40.55;12.66
75549;BME280;64133;56.002;37.208;2023-05-27T05:17:24;98946.16;;;41.37;12.02
75549;BME280;64133;56.002;37.208;2023-05-27T05:22:28;98947.95;;;41.93;10.87
75549;BME280;64133;56.002;37.208;2023-05-27T05:27:33;98951.20;;;42.44;10.42
75549;BME280;64133;56.002;37.208;2023-05-27T05:32:38;98942.05;;;43.14;9.65
75549;BME280;64133;56.002;37.208;2023-05-27T05:37:43;98941.62;;;44.00;9.17
75549;BME280;64133;56.002;37.208;2023-05-27T05:42:47;98942.48;;;43.95;8.86
75549;BME280;64133;56.002;37.208;2023-05-27T05:47:52;98951.41;;;42.08;9.44
75549;BME280;64133;56.002;37.208;2023-05-27T05:52:57;98954.78;;;45.34;7.75
75549;BME280;64133;56.002;37.208;2023-05-27T05:58:01;98952.00;;;44.35;8.10
75549;BME280;64133;56.002;37.208;2023-05-27T06:03:06;98964.30;;;45.76;7.32
75549;BME280;64133;56.002;37.208;2023-05-27T06:08:11;98960.30;;;45.83;7.11
75549;BME280;64133;56.002;37.208;2023-05-27T06:13:15;98966.92;;;46.47;6.90
75549;BME280;64133;56.002;37.208;2023-05-27T06:18:20;98961.15;;;46.33;6.40
75549;BME280;64133;56.002;37.208;2023-05-27T06:23:24;98966.88;;;45.13;6.78
75549;BME280;64133;56.002;37.208;2023-05-27T06:28:29;98960.97;;;46.49;6.24
75549;BME280;64133;56.002;37.208;2023-05-27T06:33:34;98968.76;;;46.63;6.00
75549;BME280;64133;56.002;37.208;2023-05-27T06:38:38;98971.55;;;45.19;6.56
75549;BME280;64133;56.002;37.208;2023-05-27T06:43:43;98972.02;;;45.11;6.61
75549;BME280;64133;56.002;37.208;2023-05-27T06:48:47;98972.16;;;45.47;6.26
75549;BME280;64133;56.002;37.208;2023-05-27T06:53:51;98962.03;;;43.92;6.63
75549;BME280;64133;56.002;37.208;2023-05-27T06:58:56;98971.47;;;45.54;6.45
75549;BME280;64133;56.002;37.208;2023-05-27T07:04:00;98972.92;;;46.00;6.32
75549;BME280;64133;56.002;37.208;2023-05-27T07:09:05;98980.45;;;45.67;6.40
75549;BME280;64133;56.002;37.208;2023-05-27T07:14:10;98970.41;;;44.18;7.12
75549;BME280;64133;56.002;37.208;2023-05-27T07:19:14;98963.41;;;44.81;6.99
75549;BME280;64133;56.002;37.208;2023-05-27T07:24:19;98959.95;;;44.97;6.87
75549;BME280;64133;56.002;37.208;2023-05-27T07:29:24;98963.16;;;46.36;6.47
75549;BME280;64133;56.002;37.208;2023-05-27T07:34:28;98969.88;;;45.04;7.15
75549;BME280;64133;56.002;37.208;2023-05-27T07:39:33;98978.88;;;44.47;7.37
75549;BME280;64133;56.002;37.208;2023-05-27T07:44:38;98973.75;;;44.49;7.22
75549;BME280;64133;56.002;37.208;2023-05-27T07:49:43;98971.73;;;44.30;7.53
75549;BME280;64133;56.002;37.208;2023-05-27T07:54:47;98974.34;;;45.48;6.85
75549;BME280;64133;56.002;37.208;2023-05-27T07:59:52;98981.16;;;44.51;7.00
75549;BME280;64133;56.002;37.208;2023-05-27T08:04:57;98975.03;;;44.77;6.98
75549;BME280;64133;56.002;37.208;2023-05-27T08:10:01;98973.09;;;42.80;7.70
75549;BME280;64133;56.002;37.208;2023-05-27T08:15:08;98971.13;;;43.27;7.66
75549;BME280;64133;56.002;37.208;2023-05-27T08:20:12;98974.83;;;43.81;7.47
75549;BME280;64133;56.002;37.208;2023-05-27T08:25:17;98966.69;;;43.66;7.42
75549;BME280;64133;56.002;37.208;2023-05-27T08:30:21;98976.25;;;42.35;7.83
75549;BME280;64133;56.002;37.208;2023-05-27T08:35:26;98967.48;;;38.50;9.47
75549;BME280;64133;56.002;37.208;2023-05-27T08:40:31;98965.41;;;33.33;12.69
75549;BME280;64133;56.002;37.208;2023-05-27T08:45:36;98973.38;;;30.08;15.17
75549;BME280;64133;56.002;37.208;2023-05-27T08:50:40;98967.23;;;29.78;16.02
75549;BME280;64133;56.002;37.208;2023-05-27T08:55:45;98975.57;;;28.41;17.12
75549;BME280;64133;56.002;37.208;2023-05-27T09:00:50;98974.45;;;28.01;17.67
75549;BME280;64133;56.002;37.208;2023-05-27T09:05:55;98953.52;;;27.29;18.54
75549;BME280;64133;56.002;37.208;2023-05-27T09:11:00;98955.14;;;28.14;18.28
75549;BME280;64133;56.002;37.208;2023-05-27T09:16:04;98950.00;;;28.35;18.35
75549;BME280;64133;56.002;37.208;2023-05-27T09:21:09;98952.55;;;28.24;18.42
75549;BME280;64133;56.002;37.208;2023-05-27T09:26:14;98960.11;;;28.03;18.68
75549;BME280;64133;56.002;37.208;2023-05-27T09:31:20;98955.99;;;27.02;19.60
75549;BME280;64133;56.002;37.208;2023-05-27T09:36:24;98963.38;;;27.21;19.92
75549;BME280;64133;56.002;37.208;2023-05-27T09:41:28;98972.73;;;27.44;19.67
75549;BME280;64133;56.002;37.208;2023-05-27T09:46:34;98969.44;;;27.11;20.03
75549;BME280;64133;56.002;37.208;2023-05-27T09:51:39;98895.98;;;26.19;20.53
75549;BME280;64133;56.002;37.208;2023-05-27T09:56:44;98964.55;;;27.42;20.41
75549;BME280;64133;56.002;37.208;2023-05-27T10:01:48;98969.06;;;27.84;19.97
75549;BME280;64133;56.002;37.208;2023-05-27T10:06:53;98965.89;;;27.25;19.87
75549;BME280;64133;56.002;37.208;2023-05-27T10:11:58;98968.55;;;26.94;20.13
75549;BME280;64133;56.002;37.208;2023-05-27T10:17:02;98970.22;;;27.09;20.18
75549;BME280;64133;56.002;37.208;2023-05-27T10:27:25;98974.95;;;25.77;21.12
75549;BME280;64133;56.002;37.208;2023-05-27T10:32:30;98975.45;;;26.47;20.92
75549;BME280;64133;56.002;37.208;2023-05-27T10:37:35;98979.66;;;26.17;20.89
75549;BME280;64133;56.002;37.208;2023-05-27T10:42:39;98968.27;;;26.03;21.02
75549;BME280;64133;56.002;37.208;2023-05-27T10:47:46;98971.49;;;26.14;21.01
75549;BME280;64133;56.002;37.208;2023-05-27T10:52:51;98976.57;;;25.66;21.43
75549;BME280;64133;56.002;37.208;2023-05-27T10:57:56;98969.29;;;25.99;21.24
75549;BME280;64133;56.002;37.208;2023-05-27T11:03:00;98970.81;;;25.95;20.85
75549;BME280;64133;56.002;37.208;2023-05-27T11:08:05;98969.09;;;25.59;20.67
75549;BME280;64133;56.002;37.208;2023-05-27T11:13:10;98967.39;;;25.76;20.87
75549;BME280;64133;56.002;37.208;2023-05-27T11:18:15;98973.14;;;25.80;20.58
75549;BME280;64133;56.002;37.208;2023-05-27T11:23:19;98969.20;;;25.41;20.30
75549;BME280;64133;56.002;37.208;2023-05-27T11:28:24;98971.98;;;24.10;21.56
75549;BME280;64133;56.002;37.208;2023-05-27T11:33:32;98965.18;;;24.71;21.03
75549;BME280;64133;56.002;37.208;2023-05-27T11:38:52;98964.67;;;24.07;22.17
75549;BME280;64133;56.002;37.208;2023-05-27T11:43:57;98965.82;;;24.85;21.12
75549;BME280;64133;56.002;37.208;2023-05-27T11:49:01;98950.72;;;23.83;21.75
75549;BME280;64133;56.002;37.208;2023-05-27T11:54:06;98961.39;;;23.80;22.76
75549;BME280;64133;56.002;37.208;2023-05-27T11:59:11;98947.28;;;24.86;21.44
75549;BME280;64133;56.002;37.208;2023-05-27T12:04:15;98958.05;;;24.86;21.23
75549;BME280;64133;56.002;37.208;2023-05-27T12:09:20;98964.34;;;24.80;21.56
75549;BME280;64133;56.002;37.208;2023-05-27T12:14:25;98956.36;;;24.73;21.46
75549;BME280;64133;56.002;37.208;2023-05-27T12:19:30;98964.90;;;25.00;20.90
75549;BME280;64133;56.002;37.208;2023-05-27T12:24:34;98964.16;;;24.45;21.25
75549;BME280;64133;56.002;37.208;2023-05-27T12:29:39;98953.86;;;23.98;21.79
75549;BME280;64133;56.002;37.208;2023-05-27T12:34:43;98955.85;;;24.65;21.38
75549;BME280;64133;56.002;37.208;2023-05-27T12:39:48;98954.73;;;24.93;21.17
75549;BME280;64133;56.002;37.208;2023-05-27T12:44:53;98961.75;;;24.55;21.30
75549;BME280;64133;56.002;37.208;2023-05-27T12:49:57;98966.97;;;23.54;22.17
75549;BME280;64133;56.002;37.208;2023-05-27T12:55:02;98967.85;;;24.07;21.43
75549;BME280;64133;56.002;37.208;2023-05-27T13:00:09;98970.43;;;22.60;22.62
75549;BME280;64133;56.002;37.208;2023-05-27T13:05:14;98964.45;;;23.34;22.37
75549;BME280;64133;56.002;37.208;2023-05-27T13:10:19;98962.09;;;23.28;22.08
75549;BME280;64133;56.002;37.208;2023-05-27T13:15:23;98953.00;;;23.14;22.38
75549;BME280;64133;56.002;37.208;2023-05-27T13:20:28;98958.19;;;22.93;22.96
75549;BME280;64133;56.002;37.208;2023-05-27T13:25:33;98948.31;;;23.02;22.51
75549;BME280;64133;56.002;37.208;2023-05-27T13:30:37;98960.08;;;22.86;22.77
75549;BME280;64133;56.002;37.208;2023-05-27T13:35:42;98951.95;;;23.15;22.61
75549;BME280;64133;56.002;37.208;2023-05-27T13:40:47;98941.86;;;23.26;22.36
75549;BME280;64133;56.002;37.208;2023-05-27T13:45:51;98944.26;;;23.25;22.63
75549;BME280;64133;56.002;37.208;2023-05-27T13:50:57;98957.39;;;23.08;23.17
75549;BME280;64133;56.002;37.208;2023-05-27T13:56:01;98960.87;;;22.70;23.86
75549;BME280;64133;56.002;37.208;2023-05-27T14:01:06;98951.69;;;23.07;23.54
75549;BME280;64133;56.002;37.208;2023-05-27T14:06:10;98948.87;;;23.11;23.54
75549;BME280;64133;56.002;37.208;2023-05-27T14:11:15;98943.19;;;24.01;22.78
75549;BME280;64133;56.002;37.208;2023-05-27T14:16:20;98940.84;;;23.36;23.18
75549;BME280;64133;56.002;37.208;2023-05-27T14:21:25;98943.11;;;23.23;23.69
75549;BME280;64133;56.002;37.208;2023-05-27T14:26:30;98941.20;;;22.54;24.13
75549;BME280;64133;56.002;37.208;2023-05-27T14:31:34;98952.73;;;21.83;25.03
75549;BME280;64133;56.002;37.208;2023-05-27T14:41:52;98958.11;;;21.37;25.55
75549;BME280;64133;56.002;37.208;2023-05-27T14:46:57;98958.01;;;21.41;25.94
75549;BME280;64133;56.002;37.208;2023-05-27T14:52:02;98963.02;;;21.26;26.16
75549;BME280;64133;56.002;37.208;2023-05-27T14:57:07;98961.82;;;21.36;26.57
75549;BME280;64133;56.002;37.208;2023-05-27T15:02:11;98969.00;;;21.22;27.03
75549;BME280;64133;56.002;37.208;2023-05-27T15:07:16;98972.14;;;21.01;27.56
75549;BME280;64133;56.002;37.208;2023-05-27T15:12:21;98973.58;;;20.97;27.79
75549;BME280;64133;56.002;37.208;2023-05-27T15:17:25;98975.66;;;20.71;28.20
75549;BME280;64133;56.002;37.208;2023-05-27T15:22:30;98976.90;;;20.69;28.59
75549;BME280;64133;56.002;37.208;2023-05-27T15:27:35;98985.55;;;20.29;28.99
75549;BME280;64133;56.002;37.208;2023-05-27T15:32:39;98993.97;;;20.33;28.82
75549;BME280;64133;56.002;37.208;2023-05-27T15:37:44;98998.20;;;20.14;29.12
75549;BME280;64133;56.002;37.208;2023-05-27T15:42:48;98996.08;;;20.03;29.21
75549;BME280;64133;56.002;37.208;2023-05-27T15:47:53;98993.73;;;19.65;29.56
75549;BME280;64133;56.002;37.208;2023-05-27T15:52:58;99000.42;;;19.33;30.10
75549;BME280;64133;56.002;37.208;2023-05-27T15:58:03;99000.91;;;19.22;30.27
75549;BME280;64133;56.002;37.208;2023-05-27T16:03:07;99003.19;;;19.03;30.71
75549;BME280;64133;56.002;37.208;2023-05-27T16:08:12;99008.47;;;18.67;31.52
75549;BME280;64133;56.002;37.208;2023-05-27T16:13:17;99012.50;;;18.52;32.15
75549;BME280;64133;56.002;37.208;2023-05-27T16:18:21;99017.47;;;18.41;32.35
75549;BME280;64133;56.002;37.208;2023-05-27T16:23:26;99015.30;;;18.40;32.85
75549;BME280;64133;56.002;37.208;2023-05-27T16:28:33;99016.86;;;18.49;32.63
75549;BME280;64133;56.002;37.208;2023-05-27T16:33:38;99020.53;;;18.63;32.39
75549;BME280;64133;56.002;37.208;2023-05-27T16:38:42;99026.52;;;18.65;32.54
75549;BME280;64133;56.002;37.208;2023-05-27T16:43:47;99040.83;;;18.68;32.37
75549;BME280;64133;56.002;37.208;2023-05-27T16:48:52;99039.16;;;18.67;32.20
75549;BME280;64133;56.002;37.208;2023-05-27T16:53:56;99047.09;;;18.61;32.13
75549;BME280;64133;56.002;37.208;2023-05-27T16:59:01;99049.47;;;18.41;32.09
75549;BME280;64133;56.002;37.208;2023-05-27T17:04:06;99052.38;;;18.35;31.96
75549;BME280;64133;56.002;37.208;2023-05-27T17:09:11;99052.14;;;18.26;32.12
75549;BME280;64133;56.002;37.208;2023-05-27T17:14:15;99056.45;;;18.12;31.83
75549;BME280;64133;56.002;37.208;2023-05-27T17:19:20;99054.67;;;17.90;31.97
75549;BME280;64133;56.002;37.208;2023-05-27T17:24:24;99063.20;;;17.85;32.04
75549;BME280;64133;56.002;37.208;2023-05-27T17:29:29;99062.77;;;17.77;32.01
75549;BME280;64133;56.002;37.208;2023-05-27T17:34:34;99067.92;;;17.52;32.31
75549;BME280;64133;56.002;37.208;2023-05-27T17:39:38;99062.03;;;17.38;32.25
75549;BME280;64133;56.002;37.208;2023-05-27T17:44:43;99066.08;;;17.29;32.54
75549;BME280;64133;56.002;37.208;2023-05-27T17:49:48;99067.45;;;17.21;32.50
75549;BME280;64133;56.002;37.208;2023-05-27T17:54:53;99068.55;;;17.04;32.68
75549;BME280;64133;56.002;37.208;2023-05-27T17:59:58;99088.07;;;16.88;33.01
75549;BME280;64133;56.002;37.208;2023-05-27T18:05:03;99093.61;;;16.74;33.09
75549;BME280;64133;56.002;37.208;2023-05-27T18:10:09;99089.47;;;16.68;33.59
75549;BME280;64133;56.002;37.208;2023-05-27T18:15:14;99101.50;;;16.39;33.84
75549;BME280;64133;56.002;37.208;2023-05-27T18:20:19;99102.33;;;16.36;34.43
75549;BME280;64133;56.002;37.208;2023-05-27T18:25:24;99105.04;;;16.15;34.58
75549;BME280;64133;56.002;37.208;2023-05-27T18:30:29;99100.05;;;16.04;35.03
75549;BME280;64133;56.002;37.208;2023-05-27T18:35:33;99099.55;;;16.00;35.39
75549;BME280;64133;56.002;37.208;2023-05-27T18:40:38;99102.88;;;15.90;35.95
75549;BME280;64133;56.002;37.208;2023-05-27T18:45:53;99099.70;;;15.66;36.51
75549;BME280;64133;56.002;37.208;2023-05-27T18:50:57;99090.53;;;15.48;37.12
75549;BME280;64133;56.002;37.208;2023-05-27T18:56:02;99100.48;;;15.38;37.09
75549;BME280;64133;56.002;37.208;2023-05-27T19:01:07;99105.61;;;15.40;37.44
75549;BME280;64133;56.002;37.208;2023-05-27T19:06:11;99111.07;;;15.30;37.52
75549;BME280;64133;56.002;37.208;2023-05-27T19:11:16;99114.84;;;15.19;37.86
75549;BME280;64133;56.002;37.208;2023-05-27T19:16:21;99109.55;;;15.15;38.21
75549;BME280;64133;56.002;37.208;2023-05-27T19:21:25;99099.22;;;15.04;38.18
75549;BME280;64133;56.002;37.208;2023-05-27T19:26:30;99101.32;;;14.92;38.39
75549;BME280;64133;56.002;37.208;2023-05-27T19:31:35;99100.06;;;14.70;38.70
75549;BME280;64133;56.002;37.208;2023-05-27T19:36:39;99104.69;;;14.64;38.75
75549;BME280;64133;56.002;37.208;2023-05-27T19:41:46;99102.30;;;14.53;38.32
75549;BME280;64133;56.002;37.208;2023-05-27T19:46:50;99106.44;;;14.51;38.31
75549;BME280;64133;56.002;37.208;2023-05-27T19:51:55;99101.97;;;14.52;38.11
75549;BME280;64133;56.002;37.208;2023-05-27T19:57:00;99115.63;;;14.43;38.02
75549;BME280;64133;56.002;37.208;2023-05-27T20:02:05;99105.00;;;14.39;37.97
75549;BME280;64133;56.002;37.208;2023-05-27T20:07:09;99098.19;;;14.32;37.91
75549;BME280;64133;56.002;37.208;2023-05-27T20:12:14;99090.71;;;14.28;37.94
75549;BME280;64133;56.002;37.208;2023-05-27T20:17:19;99094.13;;;14.20;38.16
75549;BME280;64133;56.002;37.208;2023-05-27T20:22:24;99088.71;;;14.04;38.51
75549;BME280;64133;56.002;37.208;2023-05-27T20:27:28;99091.30;;;13.96;38.82
75549;BME280;64133;56.002;37.208;2023-05-27T20:32:33;99095.83;;;13.81;39.27
75549;BME280;64133;56.002;37.208;2023-05-27T20:37:38;99090.72;;;13.66;39.93
75549;BME280;64133;56.002;37.208;2023-05-27T20:42:42;99092.20;;;13.47;41.06
75549;BME280;64133;56.002;37.208;2023-05-27T20:47:47;99085.88;;;13.44;41.86
75549;BME280;64133;56.002;37.208;2023-05-27T20:52:52;99079.55;;;13.41;42.38
75549;BME280;64133;56.002;37.208;2023-05-27T20:57:57;99077.86;;;13.36;43.01
75549;BME280;64133;56.002;37.208;2023-05-27T21:03:02;99085.42;;;13.30;43.40
75549;BME280;64133;56.002;37.208;2023-05-27T21:08:06;99083.06;;;13.27;44.01
75549;BME280;64133;56.002;37.208;2023-05-27T21:13:11;99083.47;;;13.32;44.13
75549;BME280;64133;56.002;37.208;2023-05-27T21:18:16;99089.39;;;13.30;44.50
75549;BME280;64133;56.002;37.208;2023-05-27T21:23:21;99085.26;;;13.18;45.01
75549;BME280;64133;56.002;37.208;2023-05-27T21:28:25;99089.98;;;13.11;45.32
75549;BME280;64133;56.002;37.208;2023-05-27T21:33:30;99086.70;;;12.99;45.90
75549;BME280;64133;56.002;37.208;2023-05-27T21:38:34;99082.10;;;12.87;46.42
75549;BME280;64133;56.002;37.208;2023-05-27T21:43:39;99081.48;;;12.89;46.73
75549;BME280;64133;56.002;37.208;2023-05-27T21:48:44;99087.45;;;12.77;46.88
75549;BME280;64133;56.002;37.208;2023-05-27T21:53:49;99091.14;;;12.57;47.61
75549;BME280;64133;56.002;37.208;2023-05-27T21:58:54;99090.86;;;12.60;47.93
75549;BME280;64133;56.002;37.208;2023-05-27T22:03:58;99082.65;;;12.40;48.53
75549;BME280;64133;56.002;37.208;2023-05-27T22:09:03;99079.31;;;12.24;48.77
75549;BME280;64133;56.002;37.208;2023-05-27T22:14:08;99087.84;;;11.98;49.56
75549;BME280;64133;56.002;37.208;2023-05-27T22:19:12;99089.83;;;12.00;49.92
75549;BME280;64133;56.002;37.208;2023-05-27T22:24:17;99084.48;;;11.96;50.26
75549;BME280;64133;56.002;37.208;2023-05-27T22:29:22;99083.19;;;11.87;50.37
75549;BME280;64133;56.002;37.208;2023-05-27T22:34:26;99086.35;;;11.71;50.80
75549;BME280;64133;56.002;37.208;2023-05-27T22:39:31;99088.17;;;11.61;51.46
75549;BME280;64133;56.002;37.208;2023-05-27T22:44:35;99083.61;;;11.63;51.55
75549;BME280;64133;56.002;37.208;2023-05-27T22:49:40;99082.33;;;11.57;51.78
75549;BME280;64133;56.002;37.208;2023-05-27T22:54:45;99086.41;;;11.36;52.35
75549;BME280;64133;56.002;37.208;2023-05-27T22:59:49;99084.41;;;11.24;52.76
75549;BME280;64133;56.002;37.208;2023-05-27T23:04:54;99081.44;;;11.23;53.05
75549;BME280;64133;56.002;37.208;2023-05-27T23:09:59;99072.09;;;11.10;53.40
75549;BME280;64133;56.002;37.208;2023-05-27T23:15:04;99073.39;;;11.00;54.01
75549;BME280;64133;56.002;37.208;2023-05-27T23:20:09;99074.19;;;10.81;54.45
75549;BME280;64133;56.002;37.208;2023-05-27T23:25:14;99070.64;;;10.61;55.26
75549;BME280;64133;56.002;37.208;2023-05-27T23:30:19;99066.72;;;10.46;55.74
75549;BME280;64133;56.002;37.208;2023-05-27T23:35:23;99071.39;;;10.27;56.36
75549;BME280;64133;56.002;37.208;2023-05-27T23:40:28;99068.69;;;10.17;56.80
75549;BME280;64133;56.002;37.208;2023-05-27T23:45:33;99057.09;;;9.99;57.42
75549;BME280;64133;56.002;37.208;2023-05-27T23:50:38;99056.80;;;9.87;58.04
75549;BME280;64133;56.002;37.208;2023-05-27T23:55:42;99063.56;;;9.79;58.35
